Time;durP1;ratioP1;P1;durP2;ratioP2;P2;SDS_P1;SDS_P2;PMS_P1;PMS_P2;Temp;Humidity;BMP_temperature;BMP_pressure;BME280_temperature;BME280_humidity;BME280_pressure;Samples;Min_cycle;Max_cycle;Signal;HPM_P1;HPM_P2
2024/04/01 00:01:14;;;;;;;1.45;1.35;;;8.20;99.90;;;;;;6363300;22;20002;-75
2024/04/01 00:03:40;;;;;;;1.98;1.60;;;8.20;99.90;;;;;;6362640;22;20484;-75
2024/04/01 00:06:05;;;;;;;1.63;1.25;;;8.30;99.90;;;;;;6363693;22;20006;-75
2024/04/01 00:08:31;;;;;;;7.18;1.65;;;8.30;99.90;;;;;;6362934;22;20394;-76
2024/04/01 00:10:57;;;;;;;3.83;1.50;;;8.20;99.90;;;;;;6363506;22;19998;-75
2024/04/01 00:13:22;;;;;;;2.97;1.40;;;8.20;99.90;;;;;;6362188;22;20034;-75
2024/04/01 00:15:48;;;;;;;1.65;1.55;;;8.20;99.90;;;;;;6363035;22;20512;-75
2024/04/01 00:18:14;;;;;;;1.67;1.30;;;8.20;99.90;;;;;;6361456;22;19995;-75
2024/04/01 00:20:39;;;;;;;7.70;3.58;;;8.10;99.90;;;;;;6363045;22;20012;-74
2024/04/01 00:23:05;;;;;;;2.28;1.27;;;8.10;99.90;;;;;;6363182;22;20026;-77
2024/04/01 00:25:32;;;;;;;4.22;1.70;;;8.10;99.90;;;;;;6364173;22;20002;-76
2024/04/01 00:27:58;;;;;;;4.28;1.73;;;8.10;99.90;;;;;;6365220;22;20062;-75
2024/04/01 00:30:23;;;;;;;1.58;1.20;;;8.10;99.90;;;;;;6365428;22;20037;-75
2024/04/01 00:32:49;;;;;;;1.38;1.13;;;8.10;99.90;;;;;;6362809;22;19994;-75
2024/04/01 00:35:16;;;;;;;2.10;1.30;;;8.10;99.90;;;;;;6337239;22;20101;-75
2024/04/01 00:37:42;;;;;;;2.35;0.90;;;8.10;99.90;;;;;;6364554;22;20059;-74
2024/04/01 00:40:08;;;;;;;3.78;1.20;;;8.20;99.90;;;;;;6365137;22;20006;-74
2024/04/01 00:42:34;;;;;;;1.40;1.10;;;8.20;99.90;;;;;;6364365;22;20002;-74
2024/04/01 00:45:00;;;;;;;2.08;1.17;;;8.20;99.90;;;;;;6365317;22;20002;-74
2024/04/01 00:47:26;;;;;;;2.08;1.27;;;8.20;99.90;;;;;;6363235;22;20010;-74
2024/04/01 00:49:53;;;;;;;2.63;1.58;;;8.20;99.90;;;;;;6364703;22;20010;-74
2024/04/01 00:52:19;;;;;;;1.40;1.30;;;8.30;99.90;;;;;;6365158;22;20274;-73
2024/04/01 00:54:46;;;;;;;3.15;2.00;;;8.30;99.90;;;;;;6364891;22;20010;-74
2024/04/01 00:57:14;;;;;;;2.85;2.05;;;8.30;99.90;;;;;;6364523;22;20006;-74
2024/04/01 00:59:40;;;;;;;4.95;2.90;;;8.30;99.90;;;;;;6364287;22;20002;-75
2024/04/01 01:02:06;;;;;;;2.75;2.33;;;8.30;99.90;;;;;;6363126;22;20009;-75
2024/04/01 01:04:32;;;;;;;5.07;2.85;;;8.30;99.90;;;;;;6364699;22;19999;-75
2024/04/01 01:06:59;;;;;;;3.28;2.63;;;8.20;99.90;;;;;;6364693;22;20419;-75
2024/04/01 01:09:25;;;;;;;5.28;2.20;;;8.20;99.90;;;;;;6364863;22;20338;-75
2024/04/01 01:11:50;;;;;;;4.53;2.47;;;8.10;99.90;;;;;;6364588;22;20002;-75
2024/04/01 01:14:16;;;;;;;7.35;1.50;;;8.10;99.90;;;;;;6364718;22;20014;-75
2024/04/01 01:16:42;;;;;;;2.70;1.70;;;8.00;99.90;;;;;;6363018;22;20010;-75
2024/04/01 01:19:09;;;;;;;4.10;1.60;;;8.00;99.90;;;;;;6365057;22;19994;-76
2024/04/01 01:21:34;;;;;;;3.20;1.30;;;8.00;99.90;;;;;;6364263;22;20022;-75
2024/04/01 01:24:01;;;;;;;2.17;1.30;;;7.90;99.90;;;;;;6364376;22;20387;-75
2024/04/01 01:26:28;;;;;;;3.05;1.15;;;7.90;99.90;;;;;;6364141;22;20025;-75
2024/04/01 01:28:54;;;;;;;1.20;1.15;;;7.90;99.90;;;;;;6364983;22;20006;-75
2024/04/01 01:31:20;;;;;;;1.67;1.55;;;7.90;99.90;;;;;;6363464;22;20078;-74
2024/04/01 01:33:47;;;;;;;2.53;1.50;;;7.90;99.90;;;;;;6363983;22;19998;-74
2024/04/01 01:36:13;;;;;;;1.50;1.40;;;8.00;99.90;;;;;;6364465;22;20010;-75
2024/04/01 01:38:39;;;;;;;2.45;1.48;;;8.00;99.90;;;;;;6363275;22;20059;-75
2024/04/01 01:41:04;;;;;;;2.00;1.80;;;8.00;99.90;;;;;;6364092;22;20074;-76
2024/04/01 01:43:30;;;;;;;4.43;2.22;;;8.00;99.90;;;;;;6364220;22;20030;-76
2024/04/01 01:45:56;;;;;;;2.20;1.85;;;8.00;99.90;;;;;;6364425;22;20464;-75
2024/04/01 01:48:21;;;;;;;1.70;1.35;;;7.90;99.90;;;;;;6362913;22;20002;-75
2024/04/01 01:50:47;;;;;;;2.10;1.90;;;7.90;99.90;;;;;;6364565;22;20002;-75
2024/04/01 01:53:13;;;;;;;1.70;1.60;;;7.90;99.90;;;;;;6364245;22;20087;-75
2024/04/01 01:55:38;;;;;;;1.88;1.65;;;8.00;99.90;;;;;;6361332;22;20783;-75
2024/04/01 01:58:04;;;;;;;2.22;1.70;;;8.00;99.90;;;;;;6362222;22;19994;-75
2024/04/01 02:00:30;;;;;;;1.55;1.42;;;8.00;99.90;;;;;;6362351;22;19998;-76
2024/04/01 02:02:56;;;;;;;4.03;1.92;;;8.00;99.90;;;;;;6361032;22;19995;-74
2024/04/01 02:05:21;;;;;;;7.05;1.92;;;8.00;99.90;;;;;;6362788;22;20009;-75
2024/04/01 02:07:47;;;;;;;2.70;2.10;;;8.00;99.90;;;;;;6362488;22;20434;-75
2024/04/01 02:10:22;;;;;;;5.03;2.22;;;8.00;99.90;;;;;;6362652;22;20549;-74
2024/04/01 02:12:49;;;;;;;2.03;1.90;;;8.00;99.90;;;;;;6363331;22;20005;-75
2024/04/01 02:15:20;;;;;;;2.08;1.63;;;7.90;99.90;;;;;;6364514;22;20006;-75
2024/04/01 02:17:45;;;;;;;2.13;1.80;;;8.00;99.90;;;;;;6360387;22;20009;-74
2024/04/01 02:20:17;;;;;;;2.75;2.00;;;8.00;99.90;;;;;;6362572;22;20010;-75
2024/04/01 02:22:44;;;;;;;2.20;1.83;;;8.00;99.90;;;;;;6361828;22;20018;-75
2024/04/01 02:25:11;;;;;;;2.10;1.80;;;8.10;99.90;;;;;;6362413;22;20070;-75
2024/04/01 02:27:37;;;;;;;2.25;1.65;;;8.10;99.90;;;;;;6360970;22;19999;-75
2024/04/01 02:30:03;;;;;;;2.10;1.90;;;8.10;99.90;;;;;;6362189;22;20081;-75
2024/04/01 02:32:29;;;;;;;3.55;1.80;;;8.10;99.90;;;;;;6361998;22;20022;-75
2024/04/01 02:34:55;;;;;;;2.08;1.88;;;8.00;99.90;;;;;;6364054;22;20703;-75
2024/04/01 02:37:20;;;;;;;3.13;2.40;;;8.00;99.90;;;;;;6365399;22;20006;-74
2024/04/01 02:39:46;;;;;;;5.38;2.83;;;8.00;99.90;;;;;;6366168;22;20440;-75
2024/04/01 02:42:12;;;;;;;5.88;2.45;;;8.00;99.90;;;;;;6365362;22;20086;-75
2024/04/01 02:44:37;;;;;;;2.65;2.22;;;8.00;99.90;;;;;;6365809;22;20086;-75
2024/04/01 02:47:03;;;;;;;3.63;2.33;;;8.00;99.90;;;;;;6364456;22;19994;-74
2024/04/01 02:49:30;;;;;;;3.05;2.35;;;8.00;99.90;;;;;;6365967;22;20006;-74
2024/04/01 02:51:55;;;;;;;4.28;2.72;;;8.00;99.90;;;;;;6365937;22;20024;-74
2024/04/01 02:54:23;;;;;;;4.28;2.85;;;8.00;99.90;;;;;;6365902;22;19999;-74
2024/04/01 02:56:49;;;;;;;2.88;2.63;;;8.10;99.90;;;;;;6365804;22;20002;-75
2024/04/01 02:59:14;;;;;;;3.58;2.10;;;8.10;99.90;;;;;;6365728;22;20105;-75
2024/04/01 03:01:40;;;;;;;6.70;2.17;;;8.10;99.90;;;;;;6364312;22;20033;-75
2024/04/01 03:04:06;;;;;;;5.55;2.35;;;8.10;99.90;;;;;;6366156;22;20006;-75
2024/04/01 03:06:32;;;;;;;2.85;2.08;;;8.10;99.90;;;;;;6365788;22;20051;-75
2024/04/01 03:08:57;;;;;;;3.10;1.83;;;8.10;99.90;;;;;;6365713;22;19994;-75
2024/04/01 03:11:24;;;;;;;5.28;2.42;;;8.10;99.90;;;;;;6365332;22;20441;-75
2024/04/01 03:13:49;;;;;;;5.60;2.10;;;8.10;99.90;;;;;;6366136;22;19999;-75
2024/04/01 03:16:16;;;;;;;3.85;2.13;;;8.10;99.90;;;;;;6365250;22;20014;-76
2024/04/01 03:18:42;;;;;;;4.63;1.77;;;8.20;99.90;;;;;;6364897;22;20245;-75
2024/04/01 03:21:08;;;;;;;4.80;1.65;;;8.20;99.90;;;;;;6365423;22;20055;-75
2024/04/01 03:23:33;;;;;;;2.40;1.65;;;8.20;99.90;;;;;;6365924;22;20010;-75
2024/04/01 03:26:00;;;;;;;2.55;1.35;;;8.30;99.90;;;;;;6365740;22;20407;-75
2024/04/01 03:28:26;;;;;;;4.55;1.55;;;8.30;99.90;;;;;;6365389;22;19995;-76
2024/04/01 03:30:52;;;;;;;3.58;1.50;;;8.30;99.90;;;;;;6365809;22;20012;-75
2024/04/01 03:33:18;;;;;;;2.78;1.40;;;8.30;99.90;;;;;;6363740;22;20441;-75
2024/04/01 03:35:43;;;;;;;3.42;1.60;;;8.40;99.90;;;;;;6365458;22;20021;-75
2024/04/01 03:38:09;;;;;;;3.53;1.73;;;8.40;99.90;;;;;;6365637;22;20073;-75
2024/04/01 03:40:39;;;;;;;6.03;2.03;;;8.40;99.90;;;;;;6365236;22;20002;-75
2024/04/01 03:43:06;;;;;;;5.40;1.67;;;8.40;99.90;;;;;;6365359;22;20025;-75
2024/04/01 03:45:33;;;;;;;4.20;1.98;;;8.40;99.90;;;;;;6365520;22;20468;-75
2024/04/01 03:47:58;;;;;;;1.67;1.50;;;8.40;99.90;;;;;;6363836;22;19998;-75
2024/04/01 03:50:24;;;;;;;3.17;1.70;;;8.40;99.90;;;;;;6364703;22;20006;-75
2024/04/01 03:52:50;;;;;;;3.97;2.13;;;8.40;99.90;;;;;;6365672;22;20009;-75
2024/04/01 03:55:16;;;;;;;2.60;2.22;;;8.40;99.90;;;;;;6365301;22;20526;-75
2024/04/01 03:57:42;;;;;;;2.85;1.90;;;8.40;99.90;;;;;;6364974;22;20093;-75
2024/04/01 04:00:08;;;;;;;4.60;1.75;;;8.40;99.90;;;;;;6365526;22;20419;-74
2024/04/01 04:02:34;;;;;;;6.15;1.63;;;8.50;99.90;;;;;;6363909;22;20051;-76
2024/04/01 04:05:00;;;;;;;2.45;2.15;;;8.50;99.90;;;;;;6365345;22;20006;-75
2024/04/01 04:07:25;;;;;;;2.47;1.90;;;8.50;99.90;;;;;;6364595;22;19999;-75
2024/04/01 04:09:51;;;;;;;3.65;1.70;;;8.50;99.90;;;;;;6365291;22;19999;-76
2024/04/01 04:12:17;;;;;;;3.83;1.83;;;8.50;99.90;;;;;;6365342;22;19999;-75
2024/04/01 04:14:43;;;;;;;2.90;1.88;;;8.50;99.90;;;;;;6365065;22;20454;-76
2024/04/01 04:17:08;;;;;;;1.95;1.65;;;8.50;99.90;;;;;;6363051;22;20026;-75
2024/04/01 04:19:34;;;;;;;5.47;2.00;;;8.50;99.90;;;;;;6365098;22;20485;-74
2024/04/01 04:21:59;;;;;;;4.22;2.05;;;8.50;99.90;;;;;;6364918;22;20018;-75
2024/04/01 04:24:25;;;;;;;1.85;1.70;;;8.50;99.90;;;;;;6364305;22;20062;-75
2024/04/01 04:26:52;;;;;;;5.50;1.90;;;8.60;99.90;;;;;;6362910;22;19998;-76
2024/04/01 04:29:18;;;;;;;3.05;2.03;;;8.60;99.90;;;;;;6363497;22;20449;-76
2024/04/01 04:31:54;;;;;;;4.38;2.42;;;8.50;99.90;;;;;;6362231;22;20006;-76
2024/04/01 04:34:22;;;;;;;4.90;2.40;;;8.60;99.90;;;;;;6365510;22;20002;-75
2024/04/01 04:36:48;;;;;;;3.30;2.10;;;8.60;99.90;;;;;;6364372;22;20006;-75
2024/04/01 04:39:24;;;;;;;2.85;2.38;;;8.60;99.90;;;;;;6364830;22;20383;-75
2024/04/01 04:41:52;;;;;;;7.28;2.22;;;8.60;99.90;;;;;;6365047;22;19998;-76
2024/04/01 04:44:19;;;;;;;4.97;2.20;;;8.60;99.90;;;;;;6365415;22;19994;-78
2024/04/01 04:46:45;;;;;;;8.15;2.35;;;8.50;99.90;;;;;;6363710;22;20003;-77
2024/04/01 04:49:11;;;;;;;3.33;2.10;;;8.60;99.90;;;;;;6337787;22;20005;-77
2024/04/01 04:51:36;;;;;;;6.10;2.53;;;8.50;99.90;;;;;;6365446;22;20037;-77
2024/04/01 04:54:04;;;;;;;5.00;2.40;;;8.50;99.90;;;;;;6365600;22;20469;-77
2024/04/01 04:56:30;;;;;;;6.03;2.80;;;8.50;99.90;;;;;;6363975;22;20010;-78
2024/04/01 04:58:55;;;;;;;6.47;2.60;;;8.50;99.90;;;;;;6365287;22;20003;-77
2024/04/01 05:01:21;;;;;;;3.58;2.47;;;8.50;99.90;;;;;;6364072;22;20030;-77
2024/04/01 05:03:47;;;;;;;5.60;2.05;;;8.50;99.90;;;;;;6364888;22;19994;-76
2024/04/01 05:06:15;;;;;;;2.53;1.90;;;8.50;99.90;;;;;;6370990;22;20006;-77
2024/04/01 05:08:41;;;;;;;2.92;2.10;;;8.40;99.90;;;;;;6373692;22;20023;-77
2024/04/01 05:11:07;;;;;;;1.38;1.27;;;8.40;99.90;;;;;;6371153;22;19999;-76
2024/04/01 05:13:36;;;;;;;4.60;2.08;;;8.40;99.90;;;;;;6370599;22;20018;-77
2024/04/01 05:16:06;;;;;;;3.10;1.38;;;8.40;99.90;;;;;;6371684;22;20021;-77
2024/04/01 05:18:33;;;;;;;2.78;1.40;;;8.40;99.90;;;;;;6370192;22;20018;-75
2024/04/01 05:20:59;;;;;;;1.70;1.23;;;8.40;99.90;;;;;;6362878;22;20055;-76
2024/04/01 05:23:25;;;;;;;1.50;1.40;;;8.40;99.90;;;;;;6332763;22;20041;-77
2024/04/01 05:25:50;;;;;;;5.40;1.52;;;8.40;99.90;;;;;;6331441;22;20884;-76
2024/04/01 05:28:16;;;;;;;4.45;1.58;;;8.50;99.90;;;;;;6330507;22;20419;-76
2024/04/01 05:30:42;;;;;;;3.70;1.63;;;8.40;99.90;;;;;;6329717;22;20030;-75
2024/04/01 05:33:07;;;;;;;2.10;1.75;;;8.40;99.90;;;;;;6327150;22;20006;-76
2024/04/01 05:35:36;;;;;;;2.72;1.98;;;8.40;99.90;;;;;;6327807;22;20011;-75
2024/04/01 05:38:05;;;;;;;3.88;2.38;;;8.40;99.90;;;;;;6330965;22;20081;-74
2024/04/01 05:40:31;;;;;;;5.70;2.47;;;8.40;99.90;;;;;;6329211;22;20003;-75
2024/04/01 05:42:56;;;;;;;8.55;2.55;;;8.40;99.90;;;;;;6330075;22;20006;-75
2024/04/01 05:45:22;;;;;;;4.95;2.78;;;8.40;99.90;;;;;;6332088;22;20011;-76
2024/04/01 05:47:48;;;;;;;3.83;2.55;;;8.50;99.90;;;;;;6330240;22;20003;-75
2024/04/01 05:50:18;;;;;;;7.72;2.58;;;8.50;99.90;;;;;;6331009;22;20006;-76
2024/04/01 05:52:44;;;;;;;4.13;2.50;;;8.40;99.90;;;;;;6331824;22;20002;-75
2024/04/01 05:55:11;;;;;;;5.75;2.47;;;8.50;99.90;;;;;;6330593;22;20022;-76
2024/04/01 05:57:37;;;;;;;3.63;2.50;;;8.50;99.90;;;;;;6331480;22;20346;-75
2024/04/01 06:00:03;;;;;;;2.80;2.38;;;8.50;99.90;;;;;;6331654;22;20013;-76
2024/04/01 06:02:29;;;;;;;11.30;2.88;;;8.50;99.90;;;;;;6330868;22;20011;-75
2024/04/01 06:04:54;;;;;;;9.88;3.00;;;8.50;99.90;;;;;;6331865;22;20006;-75
2024/04/01 06:07:20;;;;;;;5.63;3.10;;;8.50;99.90;;;;;;6331146;22;20003;-75
2024/04/01 06:09:45;;;;;;;8.90;3.08;;;8.50;99.90;;;;;;6331813;22;19994;-75
2024/04/01 06:12:11;;;;;;;5.53;2.80;;;8.60;99.90;;;;;;6333068;22;20033;-76
2024/04/01 06:14:37;;;;;;;5.18;2.80;;;8.60;99.90;;;;;;6333873;22;20006;-75
2024/04/01 06:17:02;;;;;;;6.65;2.95;;;8.60;99.90;;;;;;6331918;22;20003;-75
2024/04/01 06:19:28;;;;;;;4.28;2.53;;;8.50;99.90;;;;;;6332630;22;20006;-75
2024/04/01 06:21:54;;;;;;;3.47;1.92;;;8.50;99.90;;;;;;6344909;22;20033;-75
2024/04/01 06:24:19;;;;;;;2.15;1.60;;;8.50;99.90;;;;;;6365878;22;19994;-76
2024/04/01 06:26:45;;;;;;;2.72;1.70;;;8.50;99.90;;;;;;6338581;22;20101;-75
2024/04/01 06:29:10;;;;;;;1.50;1.10;;;8.50;99.90;;;;;;6367328;22;19998;-76
2024/04/01 06:31:36;;;;;;;1.00;1.00;;;8.50;99.90;;;;;;6337060;22;20106;-75
2024/04/01 06:34:02;;;;;;;0.90;0.90;;;8.50;99.90;;;;;;6367103;22;19998;-76
2024/04/01 06:36:28;;;;;;;0.90;0.80;;;8.40;99.90;;;;;;6363280;22;20014;-76
2024/04/01 06:38:53;;;;;;;2.33;0.88;;;8.30;99.90;;;;;;6364447;22;20330;-76
2024/04/01 06:41:19;;;;;;;4.72;0.60;;;8.30;99.90;;;;;;6363734;22;20010;-75
2024/04/01 06:43:44;;;;;;;1.20;0.60;;;8.20;99.90;;;;;;6363682;22;19998;-77
2024/04/01 06:46:10;;;;;;;2.72;0.88;;;8.20;99.90;;;;;;6363441;22;20083;-77
2024/04/01 06:48:36;;;;;;;1.05;0.60;;;8.30;99.90;;;;;;6362884;22;20099;-77
2024/04/01 06:51:01;;;;;;;0.65;0.50;;;8.20;99.90;;;;;;6363599;22;20006;-77
2024/04/01 06:53:27;;;;;;;0.50;0.50;;;8.20;99.90;;;;;;6364103;22;19994;-77
2024/04/01 06:55:53;;;;;;;0.50;0.50;;;8.20;99.90;;;;;;6363550;22;20036;-77
2024/04/01 06:58:18;;;;;;;0.50;0.50;;;8.20;99.90;;;;;;6364840;22;19999;-76
2024/04/01 07:00:44;;;;;;;0.40;0.40;;;8.20;99.90;;;;;;6366838;22;19999;-77
2024/04/01 07:03:10;;;;;;;0.95;0.60;;;8.20;99.90;;;;;;6365079;22;20001;-77
2024/04/01 07:05:36;;;;;;;0.70;0.70;;;8.20;99.90;;;;;;6366699;22;20013;-77
2024/04/01 07:08:02;;;;;;;1.73;0.80;;;8.20;99.90;;;;;;6366524;22;20440;-77
2024/04/01 07:10:29;;;;;;;1.55;1.20;;;8.20;99.90;;;;;;6366474;22;19998;-78
2024/04/01 07:12:58;;;;;;;1.33;0.90;;;8.20;99.90;;;;;;6365920;22;19995;-78
2024/04/01 07:15:24;;;;;;;2.05;0.80;;;8.30;99.90;;;;;;6364551;22;20144;-77
2024/04/01 07:17:51;;;;;;;0.65;0.63;;;8.30;99.90;;;;;;6363435;22;20030;-78
2024/04/01 07:20:17;;;;;;;0.82;0.82;;;8.30;99.90;;;;;;6361168;22;20006;-77
2024/04/01 07:22:42;;;;;;;1.35;0.70;;;8.30;99.90;;;;;;6359038;22;20045;-78
2024/04/01 07:25:08;;;;;;;0.95;0.90;;;8.40;99.90;;;;;;6365154;22;19999;-79
2024/04/01 07:27:34;;;;;;;0.55;0.52;;;8.40;99.90;;;;;;6364628;22;19998;-79
2024/04/01 07:30:05;;;;;;;0.52;0.52;;;8.40;99.90;;;;;;6364983;22;20028;-78
2024/04/01 07:32:31;;;;;;;0.43;0.43;;;8.40;99.90;;;;;;6360234;22;20392;-74
2024/04/01 07:34:57;;;;;;;0.40;0.40;;;8.40;99.90;;;;;;6362008;22;20089;-78
2024/04/01 07:37:23;;;;;;;0.50;0.50;;;8.40;99.90;;;;;;6362894;22;20489;-78
2024/04/01 07:39:49;;;;;;;0.60;0.60;;;8.40;99.90;;;;;;6366329;22;20005;-79
2024/04/01 07:42:15;;;;;;;0.52;0.52;;;8.50;99.90;;;;;;6366640;22;20006;-79
2024/04/01 07:44:40;;;;;;;0.85;0.57;;;8.60;99.90;;;;;;6366448;22;20006;-78
2024/04/01 07:47:06;;;;;;;0.60;0.60;;;8.70;99.90;;;;;;6364507;22;20002;-78
2024/04/01 07:49:33;;;;;;;1.15;0.60;;;8.60;99.90;;;;;;6366603;22;20014;-80
2024/04/01 07:51:58;;;;;;;1.00;0.70;;;8.70;99.90;;;;;;6366212;22;20055;-79
2024/04/01 07:54:25;;;;;;;0.98;0.73;;;8.60;99.90;;;;;;6366295;22;20002;-80
2024/04/01 07:56:51;;;;;;;0.60;0.60;;;8.70;99.90;;;;;;6362242;22;20013;-81
2024/04/01 07:59:16;;;;;;;3.20;0.57;;;8.70;99.90;;;;;;6365225;22;19998;-76
2024/04/01 08:01:42;;;;;;;0.98;0.50;;;8.70;99.90;;;;;;6363025;22;20014;-76
2024/04/01 08:04:08;;;;;;;1.75;0.50;;;8.80;99.90;;;;;;6359872;22;20022;-78
2024/04/01 08:06:33;;;;;;;0.52;0.50;;;8.80;99.90;;;;;;6365050;22;20003;-77
2024/04/01 08:08:59;;;;;;;1.08;0.50;;;8.90;99.90;;;;;;6365442;22;20006;-78
2024/04/01 08:11:25;;;;;;;0.32;0.32;;;8.90;99.90;;;;;;6364800;22;20025;-78
2024/04/01 08:13:50;;;;;;;0.40;0.40;;;8.80;99.90;;;;;;6365491;22;20613;-78
2024/04/01 08:16:16;;;;;;;1.30;0.55;;;8.80;99.90;;;;;;6364616;22;20049;-79
2024/04/01 08:18:41;;;;;;;1.85;0.47;;;8.90;99.90;;;;;;6364188;22;20115;-77
2024/04/01 08:21:07;;;;;;;1.23;0.60;;;8.90;99.90;;;;;;6364420;22;20002;-78
2024/04/01 08:23:33;;;;;;;0.50;0.50;;;8.80;99.90;;;;;;6362958;22;20066;-78
2024/04/01 08:25:59;;;;;;;0.50;0.50;;;8.70;99.90;;;;;;6364695;22;20077;-77
2024/04/01 08:28:24;;;;;;;0.50;0.50;;;8.90;99.90;;;;;;6363897;22;20002;-78
2024/04/01 08:30:50;;;;;;;1.38;0.63;;;8.90;99.90;;;;;;6365511;22;20002;-78
2024/04/01 08:33:17;;;;;;;0.50;0.50;;;9.00;99.90;;;;;;6363806;22;20003;-78
2024/04/01 08:35:43;;;;;;;0.47;0.47;;;9.20;99.90;;;;;;6365136;22;20542;-79
2024/04/01 08:38:09;;;;;;;0.93;0.50;;;9.40;99.90;;;;;;6365816;22;19994;-78
2024/04/01 08:40:46;;;;;;;1.05;0.63;;;9.40;99.90;;;;;;6365556;22;20002;-79
2024/04/01 08:43:17;;;;;;;1.95;0.70;;;9.50;99.90;;;;;;6365503;22;20464;-78
2024/04/01 08:45:44;;;;;;;1.08;0.90;;;9.60;99.90;;;;;;6362093;22;20656;-77
2024/04/01 08:48:12;;;;;;;2.05;1.00;;;9.50;99.90;;;;;;6364044;22;20079;-77
2024/04/01 08:50:49;;;;;;;2.00;1.30;;;9.40;99.90;;;;;;6365448;22;20006;-77
2024/04/01 08:53:30;;;;;;;2.10;1.30;;;9.30;99.90;;;;;;6365231;22;20487;-77
2024/04/01 08:55:55;;;;;;;2.33;1.30;;;9.30;99.90;;;;;;6362331;22;20011;-77
2024/04/01 08:58:22;;;;;;;1.70;1.20;;;9.20;99.90;;;;;;6365004;22;20017;-76
2024/04/01 09:00:48;;;;;;;1.88;1.20;;;9.20;99.90;;;;;;6364586;22;19998;-74
2024/04/01 09:03:14;;;;;;;1.65;1.20;;;9.10;99.90;;;;;;6362796;22;20008;-74
2024/04/01 09:05:39;;;;;;;3.38;1.02;;;9.10;99.90;;;;;;6363809;22;20064;-76
2024/04/01 09:08:05;;;;;;;3.33;1.17;;;9.20;99.90;;;;;;6360825;22;20307;-76
2024/04/01 09:10:31;;;;;;;2.80;1.30;;;9.10;99.90;;;;;;6364301;22;20010;-77
2024/04/01 09:12:59;;;;;;;1.13;0.90;;;9.10;99.90;;;;;;6361129;22;20010;-76
2024/04/01 09:15:25;;;;;;;1.08;0.90;;;9.10;99.90;;;;;;6364340;22;20010;-75
2024/04/01 09:17:51;;;;;;;0.80;0.80;;;9.10;99.90;;;;;;6363087;22;19999;-76
2024/04/01 09:20:17;;;;;;;1.67;0.93;;;9.10;99.90;;;;;;6364032;22;20025;-77
2024/04/01 09:22:42;;;;;;;1.58;0.95;;;9.10;99.90;;;;;;6363440;22;20010;-77
2024/04/01 09:25:08;;;;;;;1.05;0.80;;;9.10;99.90;;;;;;6361582;22;20498;-77
2024/04/01 09:27:33;;;;;;;0.95;0.88;;;9.00;99.90;;;;;;6364283;22;20440;-77
2024/04/01 09:29:59;;;;;;;1.77;0.90;;;9.10;99.90;;;;;;6364744;22;20069;-77
2024/04/01 09:32:25;;;;;;;1.13;1.02;;;9.20;99.90;;;;;;6363790;22;20078;-77
2024/04/01 09:34:57;;;;;;;3.40;1.10;;;9.10;99.90;;;;;;6364085;22;20081;-77
2024/04/01 09:37:24;;;;;;;1.05;0.93;;;9.10;99.90;;;;;;6365309;22;19998;-77
2024/04/01 09:39:52;;;;;;;1.40;1.30;;;9.10;99.90;;;;;;6366296;22;20365;-77
2024/04/01 09:42:18;;;;;;;2.03;1.08;;;9.10;99.90;;;;;;6371170;22;20041;-77
2024/04/01 09:44:45;;;;;;;1.77;1.33;;;9.10;99.90;;;;;;6370836;22;20047;-77
2024/04/01 09:47:10;;;;;;;2.30;1.60;;;9.10;99.90;;;;;;6368210;22;20436;-76
2024/04/01 09:49:38;;;;;;;2.30;1.50;;;9.10;99.90;;;;;;6372252;22;20070;-77
2024/04/01 09:52:05;;;;;;;1.65;1.50;;;9.10;99.90;;;;;;6372359;22;20021;-78
2024/04/01 09:54:30;;;;;;;1.50;1.40;;;9.10;99.90;;;;;;6373474;22;19995;-78
2024/04/01 09:57:27;;;;;;;1.85;1.60;;;9.00;99.90;;;;;;6373167;22;20013;-79
2024/04/01 10:00:15;;;;;;;2.90;1.42;;;9.10;99.90;;;;;;6373932;22;20052;-78
2024/04/01 10:03:21;;;;;;;1.60;1.50;;;9.20;99.90;;;;;;6371356;22;20004;-78
2024/04/01 10:06:24;;;;;;;3.63;1.98;;;9.30;99.90;;;;;;6368651;22;20008;-78
2024/04/01 10:09:09;;;;;;;2.75;1.60;;;9.20;99.90;;;;;;6372697;22;20074;-76
2024/04/01 10:12:07;;;;;;;3.10;1.70;;;9.30;99.90;;;;;;6371369;22;19998;-76
2024/04/01 10:15:05;;;;;;;1.80;1.70;;;9.30;99.90;;;;;;6235567;22;20006;-76
2024/04/01 10:18:02;;;;;;;2.38;2.05;;;9.30;99.90;;;;;;6281790;22;20015;-77
2024/04/01 10:20:33;;;;;;;6.75;2.10;;;9.40;99.90;;;;;;6344369;22;20002;-76
2024/04/01 10:23:23;;;;;;;5.07;2.20;;;9.30;99.90;;;;;;6369872;22;20591;-76
2024/04/01 10:26:39;;;;;;;3.65;2.30;;;9.40;99.90;;;;;;6365322;22;19995;-74
2024/04/01 10:29:41;;;;;;;3.40;2.23;;;9.30;99.90;;;;;;6277388;22;20089;-75
2024/04/01 10:32:25;;;;;;;2.15;2.03;;;9.50;99.90;;;;;;6362947;22;20391;-77
2024/04/01 10:35:09;;;;;;;1.70;1.60;;;9.60;99.90;;;;;;6364157;22;20006;-75
2024/04/01 10:38:03;;;;;;;1.75;1.42;;;9.50;99.90;;;;;;6364137;22;20002;-75
2024/04/01 10:40:40;;;;;;;2.20;1.77;;;9.20;99.90;;;;;;6363936;22;20005;-76
2024/04/01 10:43:37;;;;;;;1.20;1.02;;;9.10;99.90;;;;;;6363810;22;19999;-76
2024/04/01 10:46:34;;;;;;;0.80;0.80;;;9.00;99.90;;;;;;6363210;22;19998;-76
2024/04/01 10:49:21;;;;;;;0.88;0.70;;;8.90;99.90;;;;;;6364166;22;20002;-75
2024/04/01 10:52:07;;;;;;;0.70;0.60;;;8.80;99.90;;;;;;6364123;22;19998;-75
2024/04/01 10:55:02;;;;;;;2.33;0.88;;;8.80;99.90;;;;;;6360093;22;20454;-75
2024/04/01 10:57:53;;;;;;;0.50;0.50;;;8.70;99.90;;;;;;6361720;22;20361;-74
2024/04/01 11:00:41;;;;;;;0.60;0.55;;;8.60;99.90;;;;;;6364260;22;20017;-76
2024/04/01 11:03:31;;;;;;;1.83;0.52;;;8.60;99.90;;;;;;6361807;22;19995;-75
2024/04/01 11:06:15;;;;;;;0.93;0.57;;;8.70;99.90;;;;;;6335675;22;20010;-77
2024/04/01 11:09:01;;;;;;;0.85;0.70;;;8.80;99.90;;;;;;6363907;22;20002;-74
2024/04/01 11:11:39;;;;;;;;;;;8.90;99.90;;;;;;6364249;22;20002;-76
2024/04/01 11:14:06;;;;;;;3.35;0.80;;;9.10;99.90;;;;;;6364057;22;20244;-75
2024/04/01 11:16:35;;;;;;;1.00;0.82;;;9.00;99.90;;;;;;6362158;22;20010;-75
2024/04/01 11:19:50;;;;;;;2.08;0.98;;;9.00;99.90;;;;;;6363278;22;19999;-77
2024/04/01 11:22:25;;;;;;;1.45;0.80;;;9.00;99.90;;;;;;6363878;22;20021;-75
2024/04/01 11:25:10;;;;;;;0.93;0.80;;;9.30;99.90;;;;;;6363581;22;20016;-74
2024/04/01 11:27:54;;;;;;;;;;;9.40;99.90;;;;;;6363871;22;20006;-75
2024/04/01 11:30:34;;;;;;;1.30;1.05;;;9.50;99.90;;;;;;6363962;22;19909;-74
2024/04/01 11:33:10;;;;;;;1.77;0.90;;;9.60;99.90;;;;;;6361896;22;20077;-75
2024/04/01 11:35:46;;;;;;;2.92;1.75;;;9.70;99.90;;;;;;6363848;22;20407;-78
2024/04/01 11:38:31;;;;;;;1.85;0.93;;;9.90;99.90;;;;;;6364182;22;20511;-77
2024/04/01 11:40:58;;;;;;;0.90;0.90;;;10.00;99.90;;;;;;6363915;22;19998;-77
2024/04/01 11:43:26;;;;;;;3.30;1.00;;;10.20;99.90;;;;;;6335571;22;20352;-75
2024/04/01 11:45:53;;;;;;;6.05;1.02;;;10.10;99.90;;;;;;6363393;22;20396;-76
2024/04/01 11:48:20;;;;;;;1.08;0.95;;;10.10;99.90;;;;;;6362206;22;20506;-76
2024/04/01 11:50:57;;;;;;;2.88;1.00;;;10.20;99.90;;;;;;6363731;22;19998;-76
2024/04/01 11:53:24;;;;;;;1.77;1.02;;;10.20;99.90;;;;;;6364254;22;20089;-76
2024/04/01 11:56:00;;;;;;;3.45;1.10;;;10.20;99.90;;;;;;6363306;22;20014;-76
2024/04/01 11:58:26;;;;;;;2.05;1.00;;;10.20;99.90;;;;;;6362979;22;20043;-76
2024/04/01 12:00:54;;;;;;;1.20;0.75;;;10.30;99.90;;;;;;6364080;22;20007;-78
2024/04/01 12:03:21;;;;;;;2.42;0.90;;;10.50;99.90;;;;;;6361704;22;20501;-78
2024/04/01 12:05:49;;;;;;;1.00;0.77;;;10.70;99.90;;;;;;6364604;22;20002;-76
2024/04/01 12:08:18;;;;;;;4.97;0.90;;;10.70;99.90;;;;;;6365887;22;19999;-82
2024/04/01 12:10:44;;;;;;;5.47;0.80;;;10.70;99.90;;;;;;6367031;22;20010;-79
2024/04/01 12:13:09;;;;;;;3.78;0.90;;;10.70;99.90;;;;;;6365800;22;20476;-81
2024/04/01 12:15:37;;;;;;;4.10;0.82;;;10.90;99.90;;;;;;6365795;22;20010;-78
2024/04/01 12:18:06;;;;;;;8.38;0.90;;;10.90;99.90;;;;;;6364951;22;20334;-78
2024/04/01 12:20:33;;;;;;;2.08;0.98;;;10.90;99.90;;;;;;6366013;22;19998;-78
2024/04/01 12:23:12;;;;;;;3.20;0.80;;;10.90;99.90;;;;;;6366269;22;20030;-80
2024/04/01 12:25:38;;;;;;;3.97;1.10;;;11.00;99.90;;;;;;6366773;22;20002;-80
2024/04/01 12:28:05;;;;;;;6.30;1.00;;;10.90;99.90;;;;;;6366053;22;20006;-78
2024/04/01 12:30:38;;;;;;;4.85;0.90;;;11.00;99.90;;;;;;6366117;22;20002;-77
2024/04/01 12:33:05;;;;;;;2.58;0.80;;;11.00;99.90;;;;;;6364591;22;19998;-76
2024/04/01 12:35:40;;;;;;;4.93;1.08;;;11.50;99.90;;;;;;6365028;22;20011;-77
2024/04/01 12:38:13;;;;;;;4.35;0.85;;;11.80;99.90;;;;;;6365513;22;20066;-77
2024/04/01 12:40:42;;;;;;;2.85;0.80;;;11.80;99.90;;;;;;6365739;22;20006;-78
2024/04/01 12:43:14;;;;;;;5.13;0.90;;;11.90;99.90;;;;;;6364387;22;20024;-79
2024/04/01 12:45:41;;;;;;;3.97;0.80;;;12.20;95.40;;;;;;6364896;22;20009;-81
2024/04/01 12:48:12;;;;;;;1.17;0.60;;;13.00;78.40;;;;;;6363739;22;20005;-83
2024/04/01 12:50:41;;;;;;;5.47;0.70;;;12.80;49.40;;;;;;6365755;22;20423;-80
2024/04/01 12:53:20;;;;;;;3.95;0.75;;;13.10;29.20;;;;;;6365817;22;20055;-81
2024/04/01 12:55:59;;;;;;;2.20;0.60;;;12.70;17.80;;;;;;6366309;22;20017;-79
2024/04/01 12:58:31;;;;;;;2.42;0.65;;;12.50;29.60;;;;;;6366097;22;20010;-81
2024/04/01 13:01:14;;;;;;;4.28;0.82;;;12.30;1.00;;;;;;6365719;22;20006;-80
2024/04/01 13:03:46;;;;;;;0.82;0.52;;;12.60;1.00;;;;;;6364698;22;19994;-79
2024/04/01 13:06:38;;;;;;;2.17;0.65;;;12.10;1.00;;;;;;6366238;22;20326;-79